Time,TemperatureF,DewpointF,PressureIn,WindDirection,WindDirectionDegrees,WindSpeedMPH,WindSpeedGustMPH,Humidity,HourlyPrecipIn,Conditions,Clouds,dailyrainin,SoftwareType,DateUTC
2013-03-10 07:12:00,47.0,28.0,-100.00,SSE,162,1.0,2.0,45,0.00,,,-99.99,,2013-03-10 11:12:00,
2013-03-10 07:21:00,48.0,27.0,-100.00,South,187,1.0,2.0,42,0.00,,,-99.99,,2013-03-10 11:21:00,
2013-03-10 07:32:00,47.0,28.0,-100.00,East,84,1.0,2.0,45,0.00,,,-99.99,,2013-03-10 11:32:00,
2013-03-10 07:42:00,48.0,28.0,-100.00,East,101,0.0,2.0,45,0.00,,,-99.99,,2013-03-10 11:42:00,
2013-03-10 07:52:00,48.0,28.0,-100.00,ESE,105,0.0,2.0,45,0.00,,,-99.99,,2013-03-10 11:52:00,
2013-03-10 08:01:00,50.0,30.0,-100.00,East,86,0.0,2.0,46,0.00,,,-99.99,,2013-03-10 12:01:00,
2013-03-10 08:11:00,48.0,28.0,-100.00,East,86,0.0,2.0,44,0.00,,,-99.99,,2013-03-10 12:11:00,
2013-03-10 08:21:00,48.0,28.0,-100.00,East,86,0.0,2.0,46,0.00,,,-99.99,,2013-03-10 12:21:00,
2013-03-10 08:31:00,48.0,28.0,-100.00,South,190,0.0,2.0,45,0.00,,,-99.99,,2013-03-10 12:31:00,
2013-03-10 08:42:00,48.0,28.0,-100.00,SSE,156,0.0,2.0,46,0.00,,,-99.99,,2013-03-10 12:42:00,
2013-03-10 08:51:00,48.0,28.0,-100.00,SW,216,1.0,2.0,44,0.00,,,-99.99,,2013-03-10 12:51:00,
2013-03-10 09:01:00,49.0,34.0,-100.00,SE,128,2.0,2.0,58,0.00,,,-99.99,,2013-03-10 13:01:00,
2013-03-10 09:11:00,46.0,32.0,-100.00,ESE,108,1.0,2.0,62,0.00,,,-99.99,,2013-03-10 13:11:00,
2013-03-10 09:21:00,46.0,32.0,-100.00,SSE,158,1.0,2.0,54,0.00,,,-99.99,,2013-03-10 13:21:00,
2013-03-10 09:32:00,47.0,32.0,-100.00,SSE,162,1.0,2.0,59,0.00,,,-99.99,,2013-03-10 13:32:00,
2013-03-10 09:42:00,48.0,32.0,-100.00,SSE,156,2.0,2.0,53,0.00,,,-99.99,,2013-03-10 13:42:00,
2013-03-10 09:52:00,49.0,32.0,-100.00,South,186,1.0,2.0,49,0.00,,,-99.99,,2013-03-10 13:52:00,
2013-03-10 10:02:00,48.0,30.0,-100.00,SE,144,1.0,2.0,46,0.00,,,-99.99,,2013-03-10 14:02:00,
2013-03-10 10:11:00,50.0,30.0,-100.00,SE,124,1.0,2.0,45,0.00,,,-99.99,,2013-03-10 14:11:00,
2013-03-10 10:21:00,50.0,30.0,-100.00,SSE,153,1.0,2.0,45,0.00,,,-99.99,,2013-03-10 14:21:00,
2013-03-10 10:32:00,51.0,30.0,-100.00,ESE,111,2.0,2.0,44,0.00,,,-99.99,,2013-03-10 14:32:00,
2013-03-10 10:42:00,51.0,30.0,-100.00,SSE,149,1.0,2.0,44,0.00,,,-99.99,,2013-03-10 14:42:00,
2013-03-10 10:51:00,51.0,30.0,-100.00,SSW,192,5.0,8.0,42,0.00,,,-99.99,,2013-03-10 14:51:00,
2013-03-10 11:01:00,51.0,28.0,-100.00,South,172,6.0,8.0,41,0.00,,,-99.99,,2013-03-10 15:01:00,
2013-03-10 11:11:00,52.0,30.0,-100.00,SSW,193,4.0,8.0,41,0.00,,,-99.99,,2013-03-10 15:11:00,
2013-03-10 11:21:00,52.0,30.0,-100.00,SSW,211,5.0,8.0,40,0.00,,,-99.99,,2013-03-10 15:21:00,
2013-03-10 11:32:00,54.0,30.0,-100.00,SSW,199,5.0,8.0,40,0.00,,,-99.99,,2013-03-10 15:32:00,
2013-03-10 11:42:00,55.0,30.0,-100.00,South,176,6.0,8.0,38,0.00,,,-99.99,,2013-03-10 15:42:00,
2013-03-10 11:52:00,56.0,30.0,-100.00,SSW,192,6.0,8.0,36,0.00,,,-99.99,,2013-03-10 15:52:00,
2013-03-10 12:02:00,56.0,30.0,-100.00,South,179,6.0,8.0,34,0.00,,,-99.99,,2013-03-10 16:02:00,
2013-03-10 12:12:00,58.0,30.0,-100.00,South,187,6.0,8.0,34,0.00,,,-99.99,,2013-03-10 16:12:00,
2013-03-10 12:21:00,58.0,30.0,-100.00,South,187,6.0,8.0,34,0.00,,,-99.99,,2013-03-10 16:21:00,
2013-03-10 12:32:00,58.0,30.0,-100.00,South,187,6.0,8.0,34,0.00,,,-99.99,,2013-03-10 16:32:00,
2013-03-10 12:41:00,58.0,30.0,-100.00,South,187,6.0,8.0,34,0.00,,,-99.99,,2013-03-10 16:41:00,
2013-03-10 19:12:00,69.0,28.0,-100.00,SSE,165,5.0,14.0,22,0.00,,,-99.99,,2013-03-10 23:12:00,
2013-03-10 19:23:00,68.0,28.0,-100.00,SSW,199,5.0,14.0,22,0.00,,,-99.99,,2013-03-10 23:23:00,
2013-03-10 19:33:00,67.0,30.0,-100.00,SE,125,3.0,14.0,24,0.00,,,-99.99,,2013-03-10 23:33:00,
2013-03-10 19:42:00,66.0,28.0,-100.00,ESE,103,1.0,14.0,24,0.00,,,-99.99,,2013-03-10 23:42:00,
2013-03-10 19:52:00,67.0,28.0,-100.00,SSW,201,1.0,14.0,23,0.00,,,-99.99,,2013-03-10 23:52:00,
2013-03-10 20:02:00,64.0,30.0,-100.00,SE,132,1.0,14.0,28,0.00,,,-99.99,,2013-03-11 00:02:00,
2013-03-10 20:13:00,64.0,30.0,-100.00,ESE,117,0.0,14.0,27,0.00,,,-99.99,,2013-03-11 00:13:00,
2013-03-10 20:23:00,63.0,30.0,-100.00,ESE,110,1.0,14.0,28,0.00,,,-99.99,,2013-03-11 00:23:00,
2013-03-10 20:33:00,62.0,30.0,-100.00,SE,125,1.0,14.0,28,0.00,,,-99.99,,2013-03-11 00:33:00,
2013-03-10 20:43:00,62.0,30.0,-100.00,SSE,152,0.0,14.0,29,0.00,,,-99.99,,2013-03-11 00:43:00,
2013-03-10 20:52:00,62.0,30.0,-100.00,South,170,1.0,14.0,29,0.00,,,-99.99,,2013-03-11 00:52:00,
2013-03-10 21:03:00,61.0,30.0,-100.00,SSE,155,0.0,14.0,29,0.00,,,-99.99,,2013-03-11 01:03:00,
2013-03-10 21:13:00,61.0,28.0,-100.00,ESE,108,1.0,14.0,29,0.00,,,-99.99,,2013-03-11 01:13:00,
2013-03-10 21:23:00,60.0,30.0,-100.00,ESE,117,1.0,14.0,31,0.00,,,-99.99,,2013-03-11 01:23:00,
2013-03-10 21:32:00,61.0,30.0,-100.00,SSW,199,0.0,14.0,31,0.00,,,-99.99,,2013-03-11 01:32:00,
2013-03-10 21:43:00,59.0,30.0,-100.00,ESE,115,0.0,14.0,32,0.00,,,-99.99,,2013-03-11 01:43:00,
2013-03-10 21:53:00,60.0,32.0,-100.00,ESE,120,1.0,14.0,33,0.00,,,-99.99,,2013-03-11 01:53:00,
2013-03-10 22:02:00,60.0,30.0,-100.00,East,96,1.0,14.0,32,0.00,,,-99.99,,2013-03-11 02:02:00,
2013-03-10 22:12:00,59.0,30.0,-100.00,SE,139,0.0,14.0,32,0.00,,,-99.99,,2013-03-11 02:12:00,
2013-03-10 22:23:00,60.0,30.0,-100.00,SSW,199,1.0,14.0,32,0.00,,,-99.99,,2013-03-11 02:23:00,
2013-03-10 22:32:00,59.0,30.0,-100.00,ESE,107,1.0,14.0,33,0.00,,,-99.99,,2013-03-11 02:32:00,
2013-03-10 22:42:00,60.0,30.0,-100.00,South,169,1.0,14.0,32,0.00,,,-99.99,,2013-03-11 02:42:00,
2013-03-10 22:52:00,61.0,30.0,-100.00,South,172,2.0,14.0,29,0.00,,,-99.99,,2013-03-11 02:52:00,
2013-03-10 23:02:00,62.0,30.0,-100.00,SSE,162,2.0,14.0,28,0.00,,,-99.99,,2013-03-11 03:02:00,
2013-03-10 23:12:00,62.0,30.0,-100.00,South,189,2.0,14.0,29,0.00,,,-99.99,,2013-03-11 03:12:00,
2013-03-10 23:22:00,61.0,30.0,-100.00,SSE,160,2.0,14.0,31,0.00,,,-99.99,,2013-03-11 03:22:00,
2013-03-10 23:32:00,61.0,30.0,-100.00,SE,142,4.0,14.0,31,0.00,,,-99.99,,2013-03-11 03:32:00,
2013-03-10 23:42:00,61.0,32.0,-100.00,South,179,3.0,14.0,32,0.00,,,-99.99,,2013-03-11 03:42:00,
2013-03-10 23:52:00,61.0,32.0,-100.00,SSE,168,3.0,14.0,32,0.00,,,-99.99,,2013-03-11 03:52:00,